createdAt,value
2019-06-27T00:02:26.995Z,26.75
2019-06-27T00:05:02.903Z,27.22
2019-06-27T00:07:35.222Z,27.62
2019-06-27T00:10:10.149Z,28.16
2019-06-27T00:12:42.122Z,27.32
2019-06-27T00:15:24.348Z,27.23
2019-06-27T00:18:11.650Z,26.89
2019-06-27T00:21:00.730Z,26.87
2019-06-27T00:23:33.360Z,26.67
2019-06-27T00:26:07.257Z,26.66
2019-06-27T00:28:40.360Z,26.43
2019-06-27T00:31:12.472Z,26.74
2019-06-27T00:33:45.359Z,26.85
2019-06-27T00:36:18.369Z,26.81
2019-06-27T00:38:50.491Z,26.68
2019-06-27T00:41:26.106Z,26.75
2019-06-27T00:44:00.242Z,26.85
2019-06-27T00:46:33.381Z,26.91
2019-06-27T00:49:07.436Z,27.03
2019-06-27T00:51:45.233Z,27.03
2019-06-27T00:54:19.184Z,27.05
2019-06-27T00:56:51.883Z,27.16
2019-06-27T00:59:24.494Z,27.17
2019-06-27T01:01:58.483Z,27.45
2019-06-27T01:04:34.017Z,27.20
2019-06-27T01:07:06.702Z,27.10
2019-06-27T01:09:38.578Z,27.05
2019-06-27T01:12:14.071Z,27.21
2019-06-27T01:14:47.496Z,27.55
2019-06-27T01:17:21.383Z,27.84
2019-06-27T01:19:54.373Z,27.84
2019-06-27T01:22:27.352Z,28.72
2019-06-27T01:25:01.732Z,29.18
2019-06-27T01:27:46.135Z,29.27
2019-06-27T01:30:20.973Z,29.30
2019-06-27T01:32:54.592Z,29.55
2019-06-27T01:35:27.961Z,29.69
2019-06-27T01:38:00.621Z,29.81
2019-06-27T01:40:33.647Z,29.61
2019-06-27T01:43:06.804Z,29.37
2019-06-27T01:45:45.075Z,29.31
2019-06-27T01:48:18.753Z,29.55
2019-06-27T01:50:51.606Z,29.52
2019-06-27T01:53:24.719Z,29.70
2019-06-27T01:55:58.475Z,29.74
2019-06-27T01:58:30.693Z,29.59
2019-06-27T02:01:05.340Z,29.40
2019-06-27T02:03:38.956Z,29.52
2019-06-27T02:06:12.722Z,29.38
2019-06-27T02:08:47.878Z,29.42
2019-06-27T02:11:20.847Z,28.67
2019-06-27T02:13:52.094Z,29.38
2019-06-27T02:16:23.789Z,29.61
2019-06-27T02:18:59.234Z,29.75
2019-06-27T02:21:31.880Z,29.76
2019-06-27T02:24:05.241Z,29.79
2019-06-27T02:26:38.065Z,29.86
2019-06-27T02:29:09.963Z,29.86
2019-06-27T02:31:42.666Z,29.92
2019-06-27T02:34:15.914Z,29.85
2019-06-27T02:36:48.969Z,29.95
2019-06-27T02:39:21.877Z,30.02
2019-06-27T02:41:54.855Z,29.88
2019-06-27T02:44:27.885Z,29.09
2019-06-27T02:47:00.830Z,28.59
2019-06-27T02:49:32.912Z,29.06
2019-06-27T02:52:06.805Z,29.01
2019-06-27T02:54:38.868Z,29.10
2019-06-27T02:57:14.604Z,29.03
2019-06-27T02:59:47.932Z,28.73
2019-06-27T03:02:19.969Z,28.73
2019-06-27T03:04:52.243Z,28.56
2019-06-27T03:07:25.065Z,28.53
2019-06-27T03:09:58.358Z,27.66
2019-06-27T03:12:31.993Z,28.56
2019-06-27T03:15:04.418Z,28.65
2019-06-27T03:17:50.746Z,28.66
2019-06-27T03:20:25.507Z,28.61
2019-06-27T03:22:58.994Z,28.58
2019-06-27T03:25:32.442Z,28.57
2019-06-27T03:28:03.991Z,28.61
2019-06-27T03:30:35.197Z,28.73
2019-06-27T03:33:14.029Z,28.86
2019-06-27T03:35:48.491Z,28.97
2019-06-27T03:38:26.302Z,29.08
2019-06-27T03:40:58.129Z,29.16
2019-06-27T03:43:33.206Z,29.18
2019-06-27T03:46:10.452Z,29.23
2019-06-27T03:48:44.165Z,29.30
2019-06-27T03:51:17.667Z,29.33
2019-06-27T03:53:50.820Z,29.41
2019-06-27T03:56:22.213Z,29.44
2019-06-27T03:59:11.605Z,29.52
2019-06-27T04:01:29.219Z,29.55
2019-06-27T04:04:02.307Z,29.55
2019-06-27T04:06:35.753Z,29.62
2019-06-27T04:09:07.805Z,29.59
2019-06-27T04:11:40.466Z,29.57
2019-06-27T04:14:15.690Z,29.54
2019-06-27T04:16:51.736Z,29.53
2019-06-27T04:19:24.616Z,29.52
2019-06-27T04:21:58.709Z,29.48
2019-06-27T04:24:30.620Z,29.55
2019-06-27T04:27:06.060Z,29.50
2019-06-27T04:29:41.594Z,29.50
2019-06-27T04:32:14.217Z,29.54
2019-06-27T04:34:50.478Z,29.47
2019-06-27T04:37:22.301Z,29.46
2019-06-27T04:39:55.742Z,29.36
2019-06-27T04:42:29.869Z,29.38
2019-06-27T04:45:01.573Z,29.33
2019-06-27T04:47:43.971Z,29.25
2019-06-27T04:50:20.770Z,29.31
2019-06-27T04:52:52.002Z,29.34
2019-06-27T04:55:27.796Z,29.34
2019-06-27T04:58:03.004Z,29.30
2019-06-27T05:00:35.467Z,29.27
2019-06-27T05:03:09.520Z,29.25
2019-06-27T05:05:44.879Z,29.30
2019-06-27T05:08:17.378Z,29.36
2019-06-27T05:10:49.990Z,29.40
2019-06-27T05:13:21.698Z,29.53
2019-06-27T05:15:55.547Z,29.62
2019-06-27T05:18:29.930Z,29.65
2019-06-27T05:21:03.726Z,29.68
2019-06-27T05:23:41.409Z,29.69
2019-06-27T05:26:15.686Z,29.70
2019-06-27T05:28:49.871Z,29.70
2019-06-27T05:31:23.403Z,29.68
2019-06-27T05:33:58.017Z,29.86
2019-06-27T05:36:31.750Z,29.98
2019-06-27T05:39:07.994Z,29.97
2019-06-27T05:41:41.726Z,30.05
2019-06-27T05:44:15.768Z,29.98
2019-06-27T05:46:47.689Z,30.14
2019-06-27T05:49:21.131Z,30.16
2019-06-27T05:51:52.334Z,30.18
2019-06-27T05:54:25.220Z,30.14
2019-06-27T05:56:57.794Z,30.19
2019-06-27T05:59:30.726Z,30.31
2019-06-27T06:02:04.061Z,30.32
2019-06-27T06:04:36.836Z,30.41
2019-06-27T06:07:09.974Z,30.30
2019-06-27T06:09:42.185Z,30.37
2019-06-27T06:12:17.899Z,30.53
2019-06-27T06:14:51.024Z,30.56
2019-06-27T06:17:27.714Z,30.58
2019-06-27T06:20:04.390Z,30.55
2019-06-27T06:22:37.035Z,30.72
2019-06-27T06:25:11.801Z,30.69
2019-06-27T06:27:50.083Z,30.74
2019-06-27T06:30:44.589Z,30.70
2019-06-27T06:33:11.970Z,30.74
2019-06-27T06:35:49.223Z,30.67
2019-06-27T06:38:24.308Z,30.57
2019-06-27T06:40:59.607Z,30.69
2019-06-27T06:43:33.420Z,30.61
2019-06-27T06:46:08.265Z,30.52
2019-06-27T06:48:55.148Z,29.95
2019-06-27T06:51:29.790Z,30.68
2019-06-27T06:54:01.081Z,30.56
2019-06-27T06:56:34.280Z,30.47
2019-06-27T06:59:07.276Z,30.52
2019-06-27T07:01:41.448Z,30.63
2019-06-27T07:04:13.211Z,30.65
2019-06-27T07:06:47.175Z,30.66
2019-06-27T07:09:21.052Z,30.41
2019-06-27T07:11:53.689Z,30.46
2019-06-27T07:14:28.524Z,30.50
2019-06-27T07:17:01.127Z,30.37
2019-06-27T07:19:34.457Z,30.65
2019-06-27T07:22:07.671Z,30.74
2019-06-27T07:24:43.033Z,30.73
2019-06-27T07:27:15.521Z,30.80
2019-06-27T07:29:48.841Z,30.00
2019-06-27T07:32:22.689Z,30.69
2019-06-27T07:34:55.844Z,30.83
2019-06-27T07:37:30.794Z,30.72
2019-06-27T07:40:15.259Z,30.42
2019-06-27T07:42:49.122Z,30.31
2019-06-27T07:45:22.360Z,30.40
2019-06-27T07:47:55.518Z,30.43
2019-06-27T07:50:49.868Z,30.44
2019-06-27T07:53:22.599Z,30.28
2019-06-27T07:55:56.870Z,30.32
2019-06-27T07:58:28.761Z,30.78
2019-06-27T08:01:02.037Z,30.50
2019-06-27T08:03:34.692Z,30.44
2019-06-27T08:06:07.348Z,30.68
2019-06-27T08:08:40.686Z,30.75
2019-06-27T08:11:13.720Z,31.00
2019-06-27T08:13:47.789Z,31.09
2019-06-27T08:16:19.287Z,31.13
2019-06-27T08:18:52.594Z,30.70
2019-06-27T08:21:23.938Z,30.71
2019-06-27T08:23:57.978Z,30.64
2019-06-27T08:26:29.184Z,30.44
2019-06-27T08:29:02.855Z,30.60
2019-06-27T08:31:50.477Z,30.78
2019-06-27T08:34:11.198Z,30.77
2019-06-27T08:36:43.291Z,30.61
2019-06-27T08:39:18.543Z,30.70
2019-06-27T08:41:50.090Z,30.83
2019-06-27T08:44:22.135Z,30.80
2019-06-27T08:46:57.331Z,30.77
2019-06-27T08:49:28.727Z,30.88
2019-06-27T08:52:01.698Z,30.81
2019-06-27T08:54:34.784Z,30.88
2019-06-27T08:57:07.685Z,30.74
2019-06-27T08:59:40.347Z,30.90
2019-06-27T09:02:11.707Z,30.85
2019-06-27T09:04:46.910Z,30.77
2019-06-27T09:07:21.808Z,30.97
2019-06-27T09:09:57.101Z,31.31
2019-06-27T09:12:30.783Z,31.48
2019-06-27T09:15:17.164Z,31.23
2019-06-27T09:17:52.080Z,31.19
2019-06-27T09:20:25.149Z,31.31
2019-06-27T09:22:58.009Z,31.04
2019-06-27T09:25:30.805Z,31.21
2019-06-27T09:28:02.001Z,31.06
2019-06-27T09:30:35.089Z,30.92
2019-06-27T09:33:07.948Z,31.32
2019-06-27T09:35:42.681Z,31.28
2019-06-27T09:38:13.971Z,31.45
2019-06-27T09:40:46.980Z,31.36
2019-06-27T09:43:19.059Z,31.39
2019-06-27T09:45:52.052Z,31.45
2019-06-27T09:48:25.713Z,31.62
2019-06-27T09:50:59.149Z,31.76
2019-06-27T09:53:31.226Z,31.74
2019-06-27T09:56:13.036Z,31.94
2019-06-27T09:58:48.058Z,31.83
2019-06-27T10:01:23.213Z,32.15
2019-06-27T10:03:56.212Z,32.27
2019-06-27T10:06:30.474Z,32.45
2019-06-27T10:09:05.485Z,32.33
2019-06-27T10:11:41.128Z,32.26
2019-06-27T10:14:15.261Z,32.34
2019-06-27T10:16:50.464Z,32.22
2019-06-27T10:19:23.392Z,32.48
2019-06-27T10:21:55.292Z,32.51
2019-06-27T10:24:29.409Z,33.00
2019-06-27T10:27:01.288Z,32.85
2019-06-27T10:29:34.241Z,32.72
2019-06-27T10:32:06.935Z,32.87
2019-06-27T10:34:39.377Z,33.09
2019-06-27T10:37:13.707Z,32.98
2019-06-27T10:39:45.322Z,32.70
2019-06-27T10:42:21.431Z,32.60
2019-06-27T10:44:52.787Z,32.86
2019-06-27T10:47:25.553Z,32.98
2019-06-27T10:50:00.059Z,32.75
2019-06-27T10:52:31.271Z,32.51
2019-06-27T10:55:17.604Z,32.41
2019-06-27T10:57:51.667Z,32.30
2019-06-27T11:00:25.918Z,32.97
2019-06-27T11:03:14.379Z,33.03
2019-06-27T11:05:34.430Z,33.04
2019-06-27T11:08:08.253Z,32.75
2019-06-27T11:10:40.666Z,33.03
2019-06-27T11:13:13.561Z,33.63
2019-06-27T11:15:49.311Z,34.29
2019-06-27T11:18:21.695Z,33.85
2019-06-27T11:20:53.075Z,33.65
2019-06-27T11:23:24.507Z,33.53
2019-06-27T11:25:58.774Z,33.32
2019-06-27T11:28:32.403Z,33.08
2019-06-27T11:31:06.929Z,32.94
2019-06-27T11:33:40.451Z,32.87
2019-06-27T11:36:14.533Z,32.70
2019-06-27T11:38:49.567Z,33.00
2019-06-27T11:41:23.416Z,33.01
2019-06-27T11:43:57.466Z,33.25
2019-06-27T11:46:34.483Z,33.22
2019-06-27T11:49:07.906Z,33.03
2019-06-27T11:51:45.685Z,33.02
2019-06-27T11:54:20.503Z,33.05
2019-06-27T11:56:52.805Z,33.32
2019-06-27T11:59:28.744Z,33.35
2019-06-27T12:02:01.780Z,33.44
2019-06-27T12:04:33.861Z,33.70
2019-06-27T12:07:07.931Z,33.52
2019-06-27T12:09:39.802Z,33.70
2019-06-27T12:12:15.497Z,33.72
2019-06-27T12:14:49.773Z,33.48
2019-06-27T12:17:26.980Z,33.39
2019-06-27T12:20:00.893Z,33.21
2019-06-27T12:22:32.103Z,33.28
2019-06-27T12:25:17.244Z,33.68
2019-06-27T12:27:50.699Z,33.74
2019-06-27T12:30:21.957Z,33.71
2019-06-27T12:32:55.873Z,33.73
2019-06-27T12:35:28.448Z,33.92
2019-06-27T12:38:03.681Z,33.56
2019-06-27T12:40:38.083Z,33.76
2019-06-27T12:43:14.316Z,34.00
2019-06-27T12:45:45.758Z,33.82
2019-06-27T12:48:17.964Z,32.66
2019-06-27T12:50:50.866Z,34.00
2019-06-27T12:53:23.015Z,33.90
2019-06-27T12:55:56.040Z,33.73
2019-06-27T12:58:31.835Z,33.98
2019-06-27T13:01:05.052Z,33.80
2019-06-27T13:03:37.864Z,33.90
2019-06-27T13:06:11.045Z,33.94
2019-06-27T13:08:45.939Z,33.49
2019-06-27T13:11:18.017Z,33.37
2019-06-27T13:13:50.023Z,33.56
2019-06-27T13:16:23.334Z,33.77
2019-06-27T13:18:56.823Z,33.70
2019-06-27T13:21:29.130Z,33.74
2019-06-27T13:24:02.003Z,33.66
2019-06-27T13:26:36.116Z,33.75
2019-06-27T13:29:10.632Z,33.66
2019-06-27T13:31:44.016Z,33.58
2019-06-27T13:34:17.349Z,33.32
2019-06-27T13:36:50.275Z,33.04
2019-06-27T13:39:23.272Z,32.79
2019-06-27T13:41:56.255Z,32.88
2019-06-27T13:44:30.874Z,32.88
2019-06-27T13:47:09.474Z,32.82
2019-06-27T13:49:45.406Z,32.85
2019-06-27T13:52:19.230Z,32.68
2019-06-27T13:54:52.488Z,32.83
2019-06-27T13:57:26.473Z,32.84
2019-06-27T14:00:01.462Z,32.89
2019-06-27T14:02:37.985Z,32.94
2019-06-27T14:05:13.258Z,33.03
2019-06-27T14:08:03.465Z,32.98
2019-06-27T14:10:36.296Z,32.83
2019-06-27T14:13:09.671Z,32.99
2019-06-27T14:15:41.624Z,33.16
2019-06-27T14:18:19.349Z,33.05
2019-06-27T14:20:51.499Z,32.81
2019-06-27T14:23:27.215Z,32.54
2019-06-27T14:25:58.463Z,32.41
2019-06-27T14:28:31.351Z,32.25
2019-06-27T14:31:04.529Z,32.52
2019-06-27T14:33:42.110Z,32.88
2019-06-27T14:36:13.554Z,32.80
2019-06-27T14:38:49.818Z,33.14
2019-06-27T14:41:22.584Z,33.05
2019-06-27T14:43:55.564Z,32.92
2019-06-27T14:46:29.695Z,33.09
2019-06-27T14:49:17.925Z,32.77
2019-06-27T14:51:52.199Z,32.56
2019-06-27T14:54:24.148Z,32.65
2019-06-27T14:56:55.578Z,32.40
2019-06-27T14:59:27.584Z,32.34
2019-06-27T15:02:01.562Z,32.27
2019-06-27T15:04:33.612Z,32.05
2019-06-27T15:07:09.389Z,31.78
2019-06-27T15:09:40.793Z,32.00
2019-06-27T15:12:14.689Z,32.21
2019-06-27T15:14:50.491Z,32.41
2019-06-27T15:17:23.275Z,32.36
2019-06-27T15:19:59.369Z,32.33
2019-06-27T15:22:35.295Z,32.20
2019-06-27T15:25:17.792Z,32.12
2019-06-27T15:27:49.786Z,31.94
2019-06-27T15:30:31.091Z,31.87
2019-06-27T15:33:10.575Z,32.30
2019-06-27T15:35:52.831Z,32.02
2019-06-27T15:38:20.078Z,32.11
2019-06-27T15:40:55.304Z,32.20
2019-06-27T15:43:26.873Z,32.09
2019-06-27T15:45:58.873Z,32.46
2019-06-27T15:48:46.915Z,32.60
2019-06-27T15:51:19.906Z,32.66
2019-06-27T15:53:55.220Z,32.75
2019-06-27T15:56:28.990Z,32.54
2019-06-27T15:59:04.014Z,32.63
2019-06-27T16:01:39.022Z,32.35
2019-06-27T16:04:24.455Z,32.59
2019-06-27T16:06:50.304Z,32.48
2019-06-27T16:09:23.155Z,32.28
2019-06-27T16:11:56.051Z,32.25
2019-06-27T16:14:29.047Z,32.39
2019-06-27T16:17:02.094Z,32.09
2019-06-27T16:19:34.110Z,32.22
2019-06-27T16:22:09.732Z,32.05
2019-06-27T16:24:42.820Z,32.22
2019-06-27T16:27:17.046Z,32.21
2019-06-27T16:29:49.154Z,32.10
2019-06-27T16:32:23.082Z,32.09
2019-06-27T16:34:57.099Z,32.39
2019-06-27T16:37:32.256Z,31.84
2019-06-27T16:40:21.851Z,31.68
2019-06-27T16:42:53.100Z,31.61
2019-06-27T16:45:33.758Z,31.81
2019-06-27T16:48:04.993Z,31.70
2019-06-27T16:50:38.260Z,31.67
2019-06-27T16:53:11.183Z,31.54
2019-06-27T16:55:44.169Z,31.68
2019-06-27T16:58:15.667Z,31.68
2019-06-27T17:00:52.517Z,31.51
2019-06-27T17:03:26.661Z,31.59
2019-06-27T17:05:59.730Z,31.74
2019-06-27T17:08:32.231Z,31.74
2019-06-27T17:11:05.373Z,31.68
2019-06-27T17:13:39.956Z,31.68
2019-06-27T17:16:13.295Z,31.71
2019-06-27T17:18:46.279Z,31.62
2019-06-27T17:21:18.361Z,31.31
2019-06-27T17:23:51.348Z,31.10
2019-06-27T17:26:25.015Z,30.83
2019-06-27T17:28:58.117Z,30.70
2019-06-27T17:31:32.398Z,30.76
2019-06-27T17:34:06.425Z,30.72
2019-06-27T17:36:40.179Z,30.64
2019-06-27T17:39:15.841Z,30.62
2019-06-27T17:41:51.214Z,30.56
2019-06-27T17:44:26.658Z,30.53
2019-06-27T17:46:59.631Z,30.39
2019-06-27T17:49:33.342Z,30.46
2019-06-27T17:52:06.354Z,30.44
2019-06-27T17:54:39.504Z,30.48
2019-06-27T17:57:11.944Z,30.33
2019-06-27T17:59:44.514Z,30.25
2019-06-27T18:02:19.217Z,30.21
2019-06-27T18:04:51.505Z,30.30
2019-06-27T18:07:24.617Z,30.28
2019-06-27T18:09:56.591Z,30.23
2019-06-27T18:12:29.941Z,30.09
2019-06-27T18:15:01.575Z,30.03
2019-06-27T18:17:45.169Z,29.98
2019-06-27T18:20:19.184Z,29.86
2019-06-27T18:22:51.246Z,29.89
2019-06-27T18:25:23.692Z,29.78
2019-06-27T18:27:57.706Z,29.96
2019-06-27T18:30:32.700Z,29.86
2019-06-27T18:33:04.519Z,28.92
2019-06-27T18:35:38.561Z,29.46
2019-06-27T18:38:11.629Z,29.44
2019-06-27T18:40:47.764Z,29.33
2019-06-27T18:43:34.376Z,29.31
2019-06-27T18:46:16.984Z,29.23
2019-06-27T18:48:56.073Z,29.16
2019-06-27T18:51:29.876Z,29.15
2019-06-27T18:54:02.744Z,29.06
2019-06-27T18:56:44.658Z,28.88
2019-06-27T18:59:17.995Z,28.97
2019-06-27T19:01:53.011Z,28.90
2019-06-27T19:04:35.803Z,28.72
2019-06-27T19:07:08.967Z,28.63
2019-06-27T19:09:42.015Z,28.70
2019-06-27T19:12:19.118Z,28.64
2019-06-27T19:14:50.997Z,28.63
2019-06-27T19:17:26.713Z,28.56
2019-06-27T19:20:04.501Z,28.43
2019-06-27T19:23:04.981Z,28.35
2019-06-27T19:25:39.217Z,28.19
2019-06-27T19:28:11.004Z,28.13
2019-06-27T19:30:44.974Z,28.12
2019-06-27T19:33:16.848Z,28.22
2019-06-27T19:35:50.989Z,28.11
2019-06-27T19:38:24.111Z,28.14
2019-06-27T19:40:59.996Z,28.20
2019-06-27T19:43:31.512Z,28.18
2019-06-27T19:46:05.393Z,27.94
2019-06-27T19:48:39.894Z,28.09
2019-06-27T19:51:11.984Z,28.13
2019-06-27T19:53:48.041Z,27.95
2019-06-27T19:56:21.826Z,27.75
2019-06-27T19:58:54.653Z,27.81
2019-06-27T20:01:26.187Z,27.54
2019-06-27T20:04:01.828Z,27.62
2019-06-27T20:06:33.171Z,27.45
2019-06-27T20:09:06.408Z,27.45
2019-06-27T20:11:41.296Z,27.48
2019-06-27T20:14:14.222Z,27.24
2019-06-27T20:16:47.151Z,27.27
2019-06-27T20:19:20.178Z,27.13
2019-06-27T20:21:52.216Z,27.00
2019-06-27T20:24:27.172Z,27.08
2019-06-27T20:27:00.203Z,27.07
2019-06-27T20:29:33.699Z,26.94
2019-06-27T20:32:06.640Z,26.84
2019-06-27T20:34:41.266Z,26.67
2019-06-27T20:37:15.612Z,26.65
2019-06-27T20:39:47.828Z,26.74
2019-06-27T20:42:29.147Z,26.70
2019-06-27T20:45:02.398Z,26.61
2019-06-27T20:47:50.112Z,26.54
2019-06-27T20:50:21.809Z,26.43
2019-06-27T20:52:53.233Z,26.38
2019-06-27T20:55:27.528Z,26.48
2019-06-27T20:58:02.071Z,26.47
2019-06-27T21:00:35.368Z,26.39
2019-06-27T21:03:08.304Z,26.34
2019-06-27T21:05:47.345Z,26.28
2019-06-27T21:08:20.510Z,26.23
2019-06-27T21:10:53.465Z,26.22
2019-06-27T21:13:26.369Z,26.17
2019-06-27T21:16:00.467Z,25.99
2019-06-27T21:18:33.886Z,26.00
2019-06-27T21:21:06.849Z,26.07
2019-06-27T21:23:38.128Z,25.95
2019-06-27T21:26:11.751Z,25.94
2019-06-27T21:28:45.544Z,25.69
2019-06-27T21:31:19.658Z,25.80
2019-06-27T21:33:55.553Z,25.76
2019-06-27T21:36:42.813Z,25.67
2019-06-27T21:39:15.628Z,25.52
2019-06-27T21:41:49.710Z,25.34
2019-06-27T21:44:24.874Z,25.24
2019-06-27T21:46:58.320Z,25.21
2019-06-27T21:49:31.589Z,25.15
2019-06-27T21:52:08.864Z,25.05
2019-06-27T21:54:40.600Z,25.08
2019-06-27T21:57:15.618Z,24.98
2019-06-27T21:59:51.337Z,24.95
2019-06-27T22:02:24.810Z,24.95
2019-06-27T22:04:56.857Z,24.89
2019-06-27T22:07:30.539Z,24.83
2019-06-27T22:10:04.690Z,24.80
2019-06-27T22:13:01.254Z,24.73
2019-06-27T22:15:34.420Z,24.69
2019-06-27T22:18:07.736Z,24.64
2019-06-27T22:20:43.319Z,24.52
2019-06-27T22:23:16.943Z,24.43
2019-06-27T22:25:49.960Z,24.34
2019-06-27T22:28:23.885Z,24.26
2019-06-27T22:30:56.226Z,24.25
2019-06-27T22:33:30.612Z,24.17
2019-06-27T22:36:04.803Z,24.09
2019-06-27T22:38:56.554Z,24.03
2019-06-27T22:41:47.584Z,23.95
2019-06-27T22:44:39.726Z,23.94
2019-06-27T22:47:29.797Z,23.88
2019-06-27T22:50:17.606Z,23.75
2019-06-27T22:53:07.419Z,23.78
2019-06-27T22:55:41.223Z,23.74
2019-06-27T22:58:16.671Z,23.73
2019-06-27T23:00:48.356Z,23.73
2019-06-27T23:03:21.160Z,23.60
2019-06-27T23:05:54.766Z,23.63
2019-06-27T23:08:27.307Z,23.53
2019-06-27T23:11:00.111Z,23.53
2019-06-27T23:13:33.060Z,23.49
2019-06-27T23:16:06.554Z,23.47
2019-06-27T23:18:42.558Z,23.38
2019-06-27T23:21:15.379Z,23.38
2019-06-27T23:23:49.106Z,23.34
2019-06-27T23:26:22.173Z,23.31
2019-06-27T23:28:54.044Z,23.36
2019-06-27T23:31:27.164Z,23.31
2019-06-27T23:33:59.907Z,23.31
2019-06-27T23:36:33.350Z,23.26
2019-06-27T23:39:07.070Z,23.26
2019-06-27T23:41:39.385Z,23.14
2019-06-27T23:44:12.279Z,23.16
2019-06-27T23:46:45.249Z,23.02
2019-06-27T23:49:18.444Z,23.05
2019-06-27T23:51:51.982Z,23.10
2019-06-27T23:54:26.189Z,23.06
2019-06-27T23:57:00.090Z,23.06
2019-06-27T23:59:33.432Z,22.95
